Time,TemperatureF,DewpointF,PressureIn,WindDirection,WindDirectionDegrees,WindSpeedMPH,WindSpeedGustMPH,Humidity,HourlyPrecipIn,Conditions,Clouds,dailyrainin,SoftwareType,DateUTC
2013-02-18 00:13:00,27.4,24.0,30.28,WSW,255,0.0,-999.0,88,-99.99,,,0.00,weatherlink.com 1.10,2013-02-18 06:13:00,
2013-02-18 00:28:00,27.3,24.0,30.28,WSW,255,0.0,-999.0,88,-99.99,,,0.00,weatherlink.com 1.10,2013-02-18 06:28:00,
2013-02-18 00:42:00,27.2,24.0,30.27,WSW,255,0.0,-999.0,88,-99.99,,,0.00,weatherlink.com 1.10,2013-02-18 06:42:00,
2013-02-18 00:57:00,27.0,24.0,30.27,WSW,255,0.0,-999.0,88,-99.99,,,0.00,weatherlink.com 1.10,2013-02-18 06:57:00,
2013-02-18 01:13:00,26.9,24.0,30.27,WSW,255,0.0,-999.0,89,-99.99,,,0.00,weatherlink.com 1.10,2013-02-18 07:13:00,
2013-02-18 01:27:00,26.7,24.0,30.27,WSW,255,0.0,-999.0,88,-99.99,,,0.00,weatherlink.com 1.10,2013-02-18 07:27:00,
2013-02-18 01:42:00,26.5,24.0,30.27,WSW,255,0.0,-999.0,89,-99.99,,,0.00,weatherlink.com 1.10,2013-02-18 07:42:00,
2013-02-18 01:57:00,26.5,24.0,30.27,WSW,255,0.0,-999.0,89,-99.99,,,0.00,weatherlink.com 1.10,2013-02-18 07:57:00,
2013-02-18 02:13:00,26.3,23.0,30.28,WSW,255,0.0,-999.0,88,-99.99,,,0.00,weatherlink.com 1.10,2013-02-18 08:13:00,
2013-02-18 02:28:00,26.1,23.0,30.28,WSW,255,0.0,-999.0,88,-99.99,,,0.00,weatherlink.com 1.10,2013-02-18 08:28:00,
2013-02-18 02:43:00,26.0,23.0,30.27,WSW,255,0.0,-999.0,89,-99.99,,,0.00,weatherlink.com 1.10,2013-02-18 08:43:00,
2013-02-18 02:58:00,25.9,23.0,30.28,WSW,255,0.0,-999.0,90,-99.99,,,0.00,weatherlink.com 1.10,2013-02-18 08:58:00,
2013-02-18 03:13:00,25.8,23.0,30.28,WSW,255,0.0,-999.0,90,-99.99,,,0.00,weatherlink.com 1.10,2013-02-18 09:13:00,
2013-02-18 03:28:00,25.7,23.0,30.28,WSW,255,0.0,-999.0,90,-99.99,,,0.00,weatherlink.com 1.10,2013-02-18 09:28:00,
2013-02-18 03:43:00,25.5,23.0,30.28,WSW,255,0.0,-999.0,90,-99.99,,,0.00,weatherlink.com 1.10,2013-02-18 09:43:00,
2013-02-18 03:58:00,25.4,23.0,30.28,WSW,255,0.0,-999.0,90,-99.99,,,0.00,weatherlink.com 1.10,2013-02-18 09:58:00,
2013-02-18 04:13:00,25.5,23.0,30.28,WSW,255,0.0,-999.0,90,-99.99,,,0.00,weatherlink.com 1.10,2013-02-18 10:13:00,
2013-02-18 04:28:00,25.4,23.0,30.28,WSW,255,0.0,-999.0,89,-99.99,,,0.00,weatherlink.com 1.10,2013-02-18 10:28:00,
2013-02-18 04:43:00,25.1,23.0,30.29,WSW,255,0.0,-999.0,90,-99.99,,,0.00,weatherlink.com 1.10,2013-02-18 10:43:00,
2013-02-18 04:58:00,25.1,23.0,30.29,WSW,255,0.0,-999.0,90,-99.99,,,0.00,weatherlink.com 1.10,2013-02-18 10:58:00,
2013-02-18 05:43:00,24.8,23.0,30.30,WSW,255,0.0,-999.0,91,-99.99,,,0.00,weatherlink.com 1.10,2013-02-18 11:43:00,
2013-02-18 05:58:00,24.7,22.0,30.30,WSW,255,0.0,-999.0,90,-99.99,,,0.00,weatherlink.com 1.10,2013-02-18 11:58:00,
2013-02-18 06:13:00,24.5,22.0,30.30,WSW,255,0.0,-999.0,91,-99.99,,,0.00,weatherlink.com 1.10,2013-02-18 12:13:00,
2013-02-18 06:28:00,24.3,22.0,30.30,WSW,255,0.0,-999.0,91,-99.99,,,0.00,weatherlink.com 1.10,2013-02-18 12:28:00,
2013-02-18 06:43:00,24.3,22.0,30.31,WSW,255,0.0,-999.0,91,-99.99,,,0.00,weatherlink.com 1.10,2013-02-18 12:43:00,
2013-02-18 06:58:00,24.4,22.0,30.31,WSW,255,0.0,-999.0,92,-99.99,,,0.00,weatherlink.com 1.10,2013-02-18 12:58:00,
2013-02-18 07:13:00,24.7,23.0,30.31,WSW,255,0.0,-999.0,92,-99.99,,,0.00,weatherlink.com 1.10,2013-02-18 13:13:00,
2013-02-18 07:29:00,25.8,24.0,30.32,WSW,255,0.0,-999.0,93,-99.99,,,0.00,weatherlink.com 1.10,2013-02-18 13:29:00,
2013-02-18 07:43:00,27.5,25.0,30.32,WSW,255,0.0,-999.0,91,-99.99,,,0.00,weatherlink.com 1.10,2013-02-18 13:43:00,
2013-02-18 07:58:00,29.7,27.0,30.33,WSW,255,1.0,-999.0,89,-99.99,,,0.00,weatherlink.com 1.10,2013-02-18 13:58:00,
2013-02-18 08:13:00,32.6,28.0,30.33,WSW,255,1.0,-999.0,84,-99.99,,,0.00,weatherlink.com 1.10,2013-02-18 14:13:00,
2013-02-18 08:29:00,35.0,29.0,30.33,North,355,0.0,-999.0,79,-99.99,,,0.00,weatherlink.com 1.10,2013-02-18 14:29:00,
2013-02-18 08:43:00,37.3,29.0,30.33,North,355,0.0,-999.0,73,-99.99,,,0.00,weatherlink.com 1.10,2013-02-18 14:43:00,
2013-02-18 08:58:00,39.7,29.0,30.33,WNW,284,1.0,-999.0,65,-99.99,,,0.00,weatherlink.com 1.10,2013-02-18 14:58:00,
2013-02-18 09:14:00,42.0,30.0,30.33,ENE,61,0.0,-999.0,63,-99.99,,,0.00,weatherlink.com 1.10,2013-02-18 15:14:00,
2013-02-18 09:29:00,43.6,30.0,30.33,SSW,210,1.0,-999.0,60,-99.99,,,0.00,weatherlink.com 1.10,2013-02-18 15:29:00,
2013-02-18 09:44:00,45.2,31.0,30.33,SSW,207,2.0,-999.0,59,-99.99,,,0.00,weatherlink.com 1.10,2013-02-18 15:44:00,
2013-02-18 09:59:00,46.6,32.0,30.32,West,278,4.0,-999.0,57,-99.99,,,0.00,weatherlink.com 1.10,2013-02-18 15:59:00,
2013-02-18 10:14:00,48.1,33.0,30.32,SE,128,0.0,-999.0,57,-99.99,,,0.00,weatherlink.com 1.10,2013-02-18 16:14:00,
2013-02-18 10:29:00,49.9,34.0,30.32,WSW,252,2.0,-999.0,55,-99.99,,,0.00,weatherlink.com 1.10,2013-02-18 16:29:00,
2013-02-18 10:44:00,51.3,34.0,30.31,SSW,206,7.0,-999.0,51,-99.99,,,0.00,weatherlink.com 1.10,2013-02-18 16:44:00,
2013-02-18 10:59:00,51.9,35.0,30.30,WSW,249,1.0,-999.0,52,-99.99,,,0.00,weatherlink.com 1.10,2013-02-18 16:59:00,
2013-02-18 11:14:00,53.2,35.0,30.29,SSW,198,0.0,-999.0,50,-99.99,,,0.00,weatherlink.com 1.10,2013-02-18 17:14:00,
2013-02-18 11:29:00,54.1,36.0,30.28,SW,228,6.0,-999.0,50,-99.99,,,0.00,weatherlink.com 1.10,2013-02-18 17:29:00,
2013-02-18 11:44:00,55.5,35.0,30.27,South,177,11.0,-999.0,47,-99.99,,,0.00,weatherlink.com 1.10,2013-02-18 17:44:00,
2013-02-18 11:59:00,55.9,34.0,30.25,North,355,1.0,-999.0,44,-99.99,,,0.00,weatherlink.com 1.10,2013-02-18 17:59:00,
2013-02-18 12:14:00,56.2,33.0,30.25,WSW,238,3.0,-999.0,42,-99.99,,,0.00,weatherlink.com 1.10,2013-02-18 18:14:00,
2013-02-18 12:29:00,56.4,33.0,30.24,SSW,207,11.0,-999.0,41,-99.99,,,0.00,weatherlink.com 1.10,2013-02-18 18:29:00,
2013-02-18 12:44:00,56.8,33.0,30.22,WNW,296,9.0,-999.0,40,-99.99,,,0.00,weatherlink.com 1.10,2013-02-18 18:44:00,
2013-02-18 12:59:00,57.6,34.0,30.21,South,177,7.0,-999.0,42,-99.99,,,0.00,weatherlink.com 1.10,2013-02-18 18:59:00,
2013-02-18 13:15:00,58.6,34.0,30.20,South,188,4.0,-999.0,40,-99.99,,,0.00,weatherlink.com 1.10,2013-02-18 19:15:00,
2013-02-18 13:29:00,58.5,33.0,30.18,WSW,249,4.0,-999.0,39,-99.99,,,0.00,weatherlink.com 1.10,2013-02-18 19:29:00,
2013-02-18 13:45:00,59.5,34.0,30.18,West,265,5.0,-999.0,38,-99.99,,,0.00,weatherlink.com 1.10,2013-02-18 19:45:00,
2013-02-18 14:00:00,59.5,33.0,30.17,SE,143,7.0,-999.0,37,-99.99,,,0.00,weatherlink.com 1.10,2013-02-18 20:00:00,
2013-02-18 14:15:00,58.8,34.0,30.15,SW,215,2.0,-999.0,39,-99.99,,,0.00,weatherlink.com 1.10,2013-02-18 20:15:00,
2013-02-18 14:30:00,59.3,33.0,30.14,South,183,4.0,-999.0,38,-99.99,,,0.00,weatherlink.com 1.10,2013-02-18 20:30:00,
2013-02-18 14:45:00,59.8,33.0,30.14,West,259,3.0,-999.0,37,-99.99,,,0.00,weatherlink.com 1.10,2013-02-18 20:45:00,
2013-02-18 15:00:00,59.9,33.0,30.14,South,191,4.0,-999.0,37,-99.99,,,0.00,weatherlink.com 1.10,2013-02-18 21:00:00,
2013-02-18 15:15:00,60.0,33.0,30.14,South,186,4.0,-999.0,36,-99.99,,,0.00,weatherlink.com 1.10,2013-02-18 21:15:00,
2013-02-18 15:30:00,59.5,33.0,30.14,SSW,211,5.0,-999.0,37,-99.99,,,0.00,weatherlink.com 1.10,2013-02-18 21:30:00,
2013-02-18 15:45:00,59.0,32.0,30.13,South,187,3.0,-999.0,36,-99.99,,,0.00,weatherlink.com 1.10,2013-02-18 21:45:00,
2013-02-18 16:00:00,58.2,31.0,30.12,WNW,287,6.0,-999.0,36,-99.99,,,0.00,weatherlink.com 1.10,2013-02-18 22:00:00,
2013-02-18 16:15:00,58.4,31.0,30.11,WSW,244,2.0,-999.0,36,-99.99,,,0.00,weatherlink.com 1.10,2013-02-18 22:15:00,
2013-02-18 16:30:00,58.3,31.0,30.11,SW,214,1.0,-999.0,36,-99.99,,,0.00,weatherlink.com 1.10,2013-02-18 22:30:00,
2013-02-18 16:45:00,58.1,31.0,30.10,SSE,166,4.0,-999.0,36,-99.99,,,0.00,weatherlink.com 1.10,2013-02-18 22:45:00,
2013-02-18 17:00:00,58.0,31.0,30.09,South,185,4.0,-999.0,36,-99.99,,,0.00,weatherlink.com 1.10,2013-02-18 23:00:00,
2013-02-18 17:15:00,57.6,31.0,30.08,WSW,253,1.0,-999.0,37,-99.99,,,0.00,weatherlink.com 1.10,2013-02-18 23:15:00,
2013-02-18 17:30:00,57.1,30.0,30.08,West,280,1.0,-999.0,36,-99.99,,,0.00,weatherlink.com 1.10,2013-02-18 23:30:00,
2013-02-18 17:45:00,56.8,31.0,30.09,West,259,4.0,-999.0,37,-99.99,,,0.00,weatherlink.com 1.10,2013-02-18 23:45:00,
2013-02-18 18:00:00,56.6,30.0,30.08,West,265,3.0,-999.0,37,-99.99,,,0.00,weatherlink.com 1.10,2013-02-19 00:00:00,
2013-02-18 18:15:00,56.0,31.0,30.08,West,274,1.0,-999.0,38,-99.99,,,0.00,weatherlink.com 1.10,2013-02-19 00:15:00,
2013-02-18 18:30:00,55.2,31.0,30.09,WNW,297,1.0,-999.0,40,-99.99,,,0.00,weatherlink.com 1.10,2013-02-19 00:30:00,
2013-02-18 18:45:00,55.0,31.0,30.08,WSW,258,3.0,-999.0,40,-99.99,,,0.00,weatherlink.com 1.10,2013-02-19 00:45:00,
2013-02-18 19:00:00,54.6,31.0,30.09,West,277,2.0,-999.0,41,-99.99,,,0.00,weatherlink.com 1.10,2013-02-19 01:00:00,
2013-02-18 19:15:00,54.5,31.0,30.08,South,185,2.0,-999.0,41,-99.99,,,0.00,weatherlink.com 1.10,2013-02-19 01:15:00,
2013-02-18 19:30:00,54.5,31.0,30.07,SSE,155,4.0,-999.0,41,-99.99,,,0.00,weatherlink.com 1.10,2013-02-19 01:30:00,
2013-02-18 19:45:00,54.2,31.0,30.07,West,269,4.0,-999.0,41,-99.99,,,0.00,weatherlink.com 1.10,2013-02-19 01:45:00,
2013-02-18 20:00:00,54.2,31.0,30.07,SW,228,9.0,-999.0,42,-99.99,,,0.00,weatherlink.com 1.10,2013-02-19 02:00:00,
2013-02-18 20:15:00,54.3,32.0,30.07,South,188,3.0,-999.0,43,-99.99,,,0.00,weatherlink.com 1.10,2013-02-19 02:15:00,
2013-02-18 20:30:00,54.1,32.0,30.06,SSE,165,12.0,-999.0,44,-99.99,,,0.00,weatherlink.com 1.10,2013-02-19 02:30:00,
2013-02-18 20:45:00,53.8,32.0,30.07,SW,220,1.0,-999.0,44,-99.99,,,0.00,weatherlink.com 1.10,2013-02-19 02:45:00,
2013-02-18 21:01:00,53.5,32.0,30.06,SE,134,11.0,-999.0,44,-99.99,,,0.00,weatherlink.com 1.10,2013-02-19 03:01:00,
2013-02-18 21:15:00,53.3,32.0,30.05,WSW,245,7.0,-999.0,45,-99.99,,,0.00,weatherlink.com 1.10,2013-02-19 03:15:00,
2013-02-18 21:30:00,53.0,32.0,30.05,SW,215,6.0,-999.0,45,-99.99,,,0.00,weatherlink.com 1.10,2013-02-19 03:30:00,
2013-02-18 21:45:00,52.8,31.0,30.04,SE,124,2.0,-999.0,44,-99.99,,,0.00,weatherlink.com 1.10,2013-02-19 03:45:00,
2013-02-18 22:00:00,52.5,31.0,30.05,SSW,201,5.0,-999.0,44,-99.99,,,0.00,weatherlink.com 1.10,2013-02-19 04:00:00,
2013-02-18 22:16:00,52.3,30.0,30.04,SSW,196,4.0,-999.0,43,-99.99,,,0.00,weatherlink.com 1.10,2013-02-19 04:16:00,
2013-02-18 22:30:00,52.5,30.0,30.03,SSW,198,4.0,-999.0,42,-99.99,,,0.00,weatherlink.com 1.10,2013-02-19 04:30:00,
2013-02-18 22:45:00,52.4,30.0,30.01,SSW,198,2.0,-999.0,42,-99.99,,,0.00,weatherlink.com 1.10,2013-02-19 04:45:00,
2013-02-18 23:00:00,52.2,30.0,30.00,South,173,14.0,-999.0,43,-99.99,,,0.00,weatherlink.com 1.10,2013-02-19 05:00:00,
2013-02-18 23:15:00,52.1,31.0,30.00,SSW,209,7.0,-999.0,44,-99.99,,,0.00,weatherlink.com 1.10,2013-02-19 05:15:00,
2013-02-18 23:30:00,52.1,32.0,29.99,SW,218,3.0,-999.0,46,-99.99,,,0.00,weatherlink.com 1.10,2013-02-19 05:30:00,
2013-02-18 23:45:00,51.9,32.0,29.98,SSW,200,7.0,-999.0,46,-99.99,,,0.00,weatherlink.com 1.10,2013-02-19 05:45:00,